sensor_id;sensor_type;location;lat;lon;timestamp;pressure;altitude;pressure_sealevel;temperature;humidity
48778;BME280;34578;0.000;0.000;2023-04-29T00:00:35;96438.56;;;17.56;66.50
48778;BME280;34578;0.000;0.000;2023-04-29T00:05:36;96438.56;;;17.59;62.41
48778;BME280;34578;0.000;0.000;2023-04-29T00:10:36;96430.16;;;17.48;59.95
48778;BME280;34578;0.000;0.000;2023-04-29T00:15:37;96434.34;;;17.43;57.09
48778;BME280;34578;0.000;0.000;2023-04-29T00:20:39;96427.59;;;17.40;56.64
48778;BME280;34578;0.000;0.000;2023-04-29T00:25:39;96432.66;;;17.39;56.29
48778;BME280;34578;0.000;0.000;2023-04-29T00:30:40;96430.13;;;17.39;56.28
48778;BME280;34578;0.000;0.000;2023-04-29T00:35:40;96434.38;;;17.40;56.05
48778;BME280;34578;0.000;0.000;2023-04-29T00:40:41;96429.28;;;17.38;56.01
48778;BME280;34578;0.000;0.000;2023-04-29T00:45:42;96429.31;;;17.40;55.93
48778;BME280;34578;0.000;0.000;2023-04-29T00:50:43;96423.41;;;17.36;55.63
48778;BME280;34578;0.000;0.000;2023-04-29T00:55:45;96426.78;;;17.40;55.90
48778;BME280;34578;0.000;0.000;2023-04-29T01:00:46;96414.94;;;17.54;65.29
48778;BME280;34578;0.000;0.000;2023-04-29T01:05:53;96416.63;;;17.58;66.26
48778;BME280;34578;0.000;0.000;2023-04-29T01:11:07;96417.47;;;17.55;60.42
48778;BME280;34578;0.000;0.000;2023-04-29T01:16:11;96418.31;;;17.47;57.16
48778;BME280;34578;0.000;0.000;2023-04-29T01:21:16;96414.94;;;17.42;56.75
48778;BME280;34578;0.000;0.000;2023-04-29T01:26:17;96418.34;;;17.41;56.63
48778;BME280;34578;0.000;0.000;2023-04-29T01:31:54;96419.16;;;17.41;56.37
48778;BME280;34578;0.000;0.000;2023-04-29T01:37:30;96404.84;;;17.42;56.51
48778;BME280;34578;0.000;0.000;2023-04-29T01:42:45;96404.00;;;17.49;55.89
48778;BME280;34578;0.000;0.000;2023-04-29T01:47:51;96407.34;;;17.51;55.59
48778;BME280;34578;0.000;0.000;2023-04-29T01:52:52;96408.19;;;17.50;55.83
48778;BME280;34578;0.000;0.000;2023-04-29T01:57:53;96403.13;;;17.48;55.20
48778;BME280;34578;0.000;0.000;2023-04-29T02:03:13;96404.81;;;17.60;64.11
48778;BME280;34578;0.000;0.000;2023-04-29T02:08:17;96397.22;;;17.61;65.16
48778;BME280;34578;0.000;0.000;2023-04-29T02:13:19;96392.16;;;17.60;58.80
48778;BME280;34578;0.000;0.000;2023-04-29T02:18:20;96403.13;;;17.56;56.43
48778;BME280;34578;0.000;0.000;2023-04-29T02:23:22;96405.66;;;17.53;56.49
48778;BME280;34578;0.000;0.000;2023-04-29T02:28:22;96409.88;;;17.51;56.12
48778;BME280;34578;0.000;0.000;2023-04-29T02:33:23;96409.03;;;17.50;56.18
48778;BME280;34578;0.000;0.000;2023-04-29T02:38:23;96409.03;;;17.50;56.02
48778;BME280;34578;0.000;0.000;2023-04-29T02:43:24;96409.88;;;17.49;55.95
48778;BME280;34578;0.000;0.000;2023-04-29T02:48:24;96420.84;;;17.47;55.85
48778;BME280;34578;0.000;0.000;2023-04-29T02:53:25;96408.19;;;17.48;55.83
48778;BME280;34578;0.000;0.000;2023-04-29T02:58:25;96410.72;;;17.47;55.70
48778;BME280;34578;0.000;0.000;2023-04-29T03:03:25;96408.19;;;17.47;55.78
48778;BME280;34578;0.000;0.000;2023-04-29T03:08:26;96409.88;;;17.57;64.50
48778;BME280;34578;0.000;0.000;2023-04-29T03:13:27;96407.34;;;17.60;65.19
48778;BME280;34578;0.000;0.000;2023-04-29T03:18:28;96396.38;;;17.58;61.34
48778;BME280;34578;0.000;0.000;2023-04-29T03:23:28;96398.06;;;17.53;56.95
48778;BME280;34578;0.000;0.000;2023-04-29T03:28:29;96398.91;;;17.50;56.23
48778;BME280;34578;0.000;0.000;2023-04-29T03:33:29;96396.38;;;17.49;56.29
48778;BME280;34578;0.000;0.000;2023-04-29T03:38:30;96398.91;;;17.49;56.17
48778;BME280;34578;0.000;0.000;2023-04-29T03:43:30;96393.00;;;17.47;56.21
48778;BME280;34578;0.000;0.000;2023-04-29T03:48:31;96397.22;;;17.46;55.92
48778;BME280;34578;0.000;0.000;2023-04-29T03:53:32;96403.97;;;17.46;55.61
48778;BME280;34578;0.000;0.000;2023-04-29T03:58:33;96398.06;;;17.44;55.93
48778;BME280;34578;0.000;0.000;2023-04-29T04:03:34;96399.75;;;17.45;55.88
48778;BME280;34578;0.000;0.000;2023-04-29T04:08:35;96392.16;;;17.45;55.52
48778;BME280;34578;0.000;0.000;2023-04-29T04:13:42;96399.75;;;17.57;64.29
48778;BME280;34578;0.000;0.000;2023-04-29T04:18:43;96400.59;;;17.59;65.03
48778;BME280;34578;0.000;0.000;2023-04-29T04:23:43;96408.19;;;17.59;61.75
48778;BME280;34578;0.000;0.000;2023-04-29T04:28:46;96415.78;;;17.53;56.93
48778;BME280;34578;0.000;0.000;2023-04-29T04:33:54;96414.09;;;17.49;56.59
48778;BME280;34578;0.000;0.000;2023-04-29T04:38:55;96406.50;;;17.46;56.51
48778;BME280;34578;0.000;0.000;2023-04-29T04:43:56;96435.19;;;17.48;56.36
48778;BME280;34578;0.000;0.000;2023-04-29T04:49:17;96430.16;;;17.48;56.62
48778;BME280;34578;0.000;0.000;2023-04-29T04:54:25;96438.56;;;17.47;55.85
48778;BME280;34578;0.000;0.000;2023-04-29T04:59:35;96441.94;;;17.46;56.20
48778;BME280;34578;0.000;0.000;2023-04-29T05:04:35;96450.38;;;17.45;56.03
48778;BME280;34578;0.000;0.000;2023-04-29T05:09:36;96457.97;;;17.45;55.72
48778;BME280;34578;0.000;0.000;2023-04-29T05:14:37;96458.78;;;17.47;55.60
48778;BME280;34578;0.000;0.000;2023-04-29T05:19:37;96464.72;;;17.56;63.81
48778;BME280;34578;0.000;0.000;2023-04-29T05:24:38;96458.81;;;17.59;64.43
48778;BME280;34578;0.000;0.000;2023-04-29T05:29:39;96470.63;;;17.60;60.25
48778;BME280;34578;0.000;0.000;2023-04-29T05:34:39;96472.31;;;17.58;56.76
48778;BME280;34578;0.000;0.000;2023-04-29T05:39:40;96474.00;;;17.56;56.15
48778;BME280;34578;0.000;0.000;2023-04-29T05:44:46;96474.81;;;17.55;56.26
48778;BME280;34578;0.000;0.000;2023-04-29T05:49:47;96474.00;;;17.53;55.93
48778;BME280;34578;0.000;0.000;2023-04-29T05:54:48;96488.34;;;17.51;56.23
48778;BME280;34578;0.000;0.000;2023-04-29T05:59:48;96501.00;;;17.51;55.92
48778;BME280;34578;0.000;0.000;2023-04-29T06:04:49;96507.75;;;17.49;56.14
48778;BME280;34578;0.000;0.000;2023-04-29T06:09:59;96506.91;;;17.48;56.31
48778;BME280;34578;0.000;0.000;2023-04-29T06:15:00;96519.53;;;17.47;56.08
48778;BME280;34578;0.000;0.000;2023-04-29T06:20:01;96520.38;;;17.50;56.23
48778;BME280;34578;0.000;0.000;2023-04-29T06:25:01;96528.84;;;17.57;61.23
48778;BME280;34578;0.000;0.000;2023-04-29T06:30:17;96529.69;;;17.65;64.69
48778;BME280;34578;0.000;0.000;2023-04-29T06:35:18;96526.28;;;17.67;60.79
48778;BME280;34578;0.000;0.000;2023-04-29T06:40:41;96538.97;;;17.61;57.52
48778;BME280;34578;0.000;0.000;2023-04-29T06:46:00;96536.41;;;17.58;56.09
48778;BME280;34578;0.000;0.000;2023-04-29T06:51:12;96534.75;;;17.56;55.67
48778;BME280;34578;0.000;0.000;2023-04-29T06:56:13;96533.88;;;17.54;55.46
48778;BME280;34578;0.000;0.000;2023-04-29T07:01:13;96539.78;;;17.53;56.38
48778;BME280;34578;0.000;0.000;2023-04-29T07:06:13;96536.44;;;17.52;55.50
48778;BME280;34578;0.000;0.000;2023-04-29T07:11:14;96534.72;;;17.53;55.93
48778;BME280;34578;0.000;0.000;2023-04-29T07:16:15;96545.72;;;17.52;55.98
48778;BME280;34578;0.000;0.000;2023-04-29T07:21:17;96556.69;;;17.51;55.82
48778;BME280;34578;0.000;0.000;2023-04-29T07:26:17;96552.47;;;17.50;55.58
48778;BME280;34578;0.000;0.000;2023-04-29T07:31:19;96560.03;;;17.53;59.58
48778;BME280;34578;0.000;0.000;2023-04-29T07:36:20;96566.81;;;17.66;64.03
48778;BME280;34578;0.000;0.000;2023-04-29T07:41:20;96569.34;;;17.70;63.74
48778;BME280;34578;0.000;0.000;2023-04-29T07:46:21;96566.81;;;17.63;59.84
48778;BME280;34578;0.000;0.000;2023-04-29T07:51:22;96572.72;;;17.59;56.66
48778;BME280;34578;0.000;0.000;2023-04-29T07:56:22;96571.03;;;17.56;56.37
48778;BME280;34578;0.000;0.000;2023-04-29T08:01:23;96573.53;;;17.55;56.23
48778;BME280;34578;0.000;0.000;2023-04-29T08:06:23;96575.25;;;17.56;58.35
48778;BME280;34578;0.000;0.000;2023-04-29T08:11:24;96581.97;;;17.54;59.74
48778;BME280;34578;0.000;0.000;2023-04-29T08:16:25;96578.63;;;17.53;57.33
48778;BME280;34578;0.000;0.000;2023-04-29T08:21:26;96578.63;;;17.52;58.72
48778;BME280;34578;0.000;0.000;2023-04-29T08:26:26;96572.72;;;17.63;58.48
48778;BME280;34578;0.000;0.000;2023-04-29T08:31:27;96569.34;;;17.57;56.85
48778;BME280;34578;0.000;0.000;2023-04-29T08:36:27;96571.84;;;17.54;56.35
48778;BME280;34578;0.000;0.000;2023-04-29T08:41:31;96560.06;;;17.62;59.81
48778;BME280;34578;0.000;0.000;2023-04-29T08:46:32;96564.28;;;17.72;63.00
48778;BME280;34578;0.000;0.000;2023-04-29T08:51:32;96562.59;;;17.71;60.50
48778;BME280;34578;0.000;0.000;2023-04-29T08:56:34;96556.69;;;17.61;57.15
48778;BME280;34578;0.000;0.000;2023-04-29T09:01:39;96555.00;;;17.50;59.70
48778;BME280;34578;0.000;0.000;2023-04-29T09:06:40;96562.56;;;17.51;58.39
48778;BME280;34578;0.000;0.000;2023-04-29T09:11:40;96568.47;;;17.55;60.53
48778;BME280;34578;0.000;0.000;2023-04-29T09:16:41;96565.09;;;17.53;57.13
48778;BME280;34578;0.000;0.000;2023-04-29T09:21:53;96575.25;;;17.50;55.80
48778;BME280;34578;0.000;0.000;2023-04-29T09:26:58;96583.66;;;17.52;55.24
48778;BME280;34578;0.000;0.000;2023-04-29T09:31:59;96587.03;;;17.42;56.05
48778;BME280;34578;0.000;0.000;2023-04-29T09:36:59;96581.97;;;17.45;54.75
48778;BME280;34578;0.000;0.000;2023-04-29T09:42:00;96583.66;;;17.46;54.46
48778;BME280;34578;0.000;0.000;2023-04-29T09:47:06;96593.78;;;17.46;55.27
48778;BME280;34578;0.000;0.000;2023-04-29T09:52:08;96600.56;;;17.65;63.59
48778;BME280;34578;0.000;0.000;2023-04-29T09:57:11;96593.81;;;17.70;63.83
48778;BME280;34578;0.000;0.000;2023-04-29T10:02:13;96589.59;;;17.61;60.42
48778;BME280;34578;0.000;0.000;2023-04-29T10:07:15;96591.28;;;17.56;56.26
48778;BME280;34578;0.000;0.000;2023-04-29T10:12:18;96601.38;;;17.52;56.10
48778;BME280;34578;0.000;0.000;2023-04-29T10:17:25;96594.63;;;17.49;56.05
48778;BME280;34578;0.000;0.000;2023-04-29T10:22:48;96592.13;;;17.48;55.51
48778;BME280;34578;0.000;0.000;2023-04-29T10:27:49;96592.94;;;17.47;55.63
48778;BME280;34578;0.000;0.000;2023-04-29T10:32:52;96587.03;;;17.45;55.68
48778;BME280;34578;0.000;0.000;2023-04-29T10:37:56;96584.50;;;17.45;55.71
48778;BME280;34578;0.000;0.000;2023-04-29T10:42:59;96578.59;;;17.43;55.61
48778;BME280;34578;0.000;0.000;2023-04-29T10:53:05;96591.25;;;17.43;55.42
48778;BME280;34578;0.000;0.000;2023-04-29T11:08:44;96576.09;;;17.68;60.61
48778;BME280;34578;0.000;0.000;2023-04-29T11:13:45;96562.59;;;17.57;58.94
48778;BME280;34578;0.000;0.000;2023-04-29T11:19:08;96565.97;;;17.52;56.22
48778;BME280;34578;0.000;0.000;2023-04-29T11:24:09;96562.59;;;17.50;56.32
48778;BME280;34578;0.000;0.000;2023-04-29T11:29:11;96570.16;;;17.47;56.10
48778;BME280;34578;0.000;0.000;2023-04-29T11:34:12;96565.09;;;17.45;55.93
48778;BME280;34578;0.000;0.000;2023-04-29T11:39:12;96560.88;;;17.46;56.36
48778;BME280;34578;0.000;0.000;2023-04-29T11:44:12;96560.91;;;17.44;58.16
48778;BME280;34578;0.000;0.000;2023-04-29T11:49:13;96560.06;;;17.50;57.09
48778;BME280;34578;0.000;0.000;2023-04-29T11:54:13;96556.69;;;17.52;59.33
48778;BME280;34578;0.000;0.000;2023-04-29T11:59:14;96560.06;;;17.74;60.39
48778;BME280;34578;0.000;0.000;2023-04-29T12:04:14;96556.69;;;17.81;60.83
48778;BME280;34578;0.000;0.000;2023-04-29T12:09:15;96555.00;;;17.77;60.52
48778;BME280;34578;0.000;0.000;2023-04-29T12:14:16;96559.22;;;17.64;57.72
48778;BME280;34578;0.000;0.000;2023-04-29T12:19:16;96550.75;;;17.55;57.06
48778;BME280;34578;0.000;0.000;2023-04-29T12:24:19;96557.53;;;17.57;57.34
48778;BME280;34578;0.000;0.000;2023-04-29T12:29:21;96561.75;;;17.66;60.89
48778;BME280;34578;0.000;0.000;2023-04-29T12:34:28;96562.59;;;17.80;58.34
48778;BME280;34578;0.000;0.000;2023-04-29T12:39:30;96552.47;;;17.75;59.20
48778;BME280;34578;0.000;0.000;2023-04-29T12:44:36;96563.44;;;17.70;58.88
48778;BME280;34578;0.000;0.000;2023-04-29T12:49:36;96560.91;;;17.61;57.72
48778;BME280;34578;0.000;0.000;2023-04-29T12:54:38;96569.34;;;17.55;56.88
48778;BME280;34578;0.000;0.000;2023-04-29T12:59:40;96564.28;;;17.67;59.90
48778;BME280;34578;0.000;0.000;2023-04-29T13:04:41;96560.91;;;17.80;58.46
48778;BME280;34578;0.000;0.000;2023-04-29T13:09:41;96570.19;;;17.71;58.49
48778;BME280;34578;0.000;0.000;2023-04-29T13:14:42;96561.72;;;17.58;56.52
48778;BME280;34578;0.000;0.000;2023-04-29T13:19:42;96567.66;;;17.50;57.47
48778;BME280;34578;0.000;0.000;2023-04-29T13:24:44;96571.00;;;17.50;56.50
48778;BME280;34578;0.000;0.000;2023-04-29T13:29:45;96566.81;;;17.52;57.15
48778;BME280;34578;0.000;0.000;2023-04-29T13:34:45;96570.22;;;17.74;59.15
48778;BME280;34578;0.000;0.000;2023-04-29T13:39:45;96570.19;;;17.77;58.36
48778;BME280;34578;0.000;0.000;2023-04-29T13:44:46;96562.59;;;17.66;58.57
48778;BME280;34578;0.000;0.000;2023-04-29T13:49:47;96566.81;;;17.63;59.11
48778;BME280;34578;0.000;0.000;2023-04-29T13:54:47;96560.06;;;17.56;58.15
48778;BME280;34578;0.000;0.000;2023-04-29T13:59:48;96562.59;;;17.54;56.59
48778;BME280;34578;0.000;0.000;2023-04-29T14:04:52;96559.22;;;17.60;59.52
48778;BME280;34578;0.000;0.000;2023-04-29T14:09:52;96561.75;;;17.72;62.45
48778;BME280;34578;0.000;0.000;2023-04-29T14:14:52;96562.59;;;17.71;59.71
48778;BME280;34578;0.000;0.000;2023-04-29T14:19:53;96564.28;;;17.64;58.54
48778;BME280;34578;0.000;0.000;2023-04-29T14:24:54;96567.66;;;17.57;56.77
48778;BME280;34578;0.000;0.000;2023-04-29T14:29:54;96565.09;;;17.53;56.27
48778;BME280;34578;0.000;0.000;2023-04-29T14:34:54;96571.84;;;17.54;56.48
48778;BME280;34578;0.000;0.000;2023-04-29T14:39:55;96579.44;;;17.54;56.59
48778;BME280;34578;0.000;0.000;2023-04-29T14:44:55;96577.81;;;17.69;62.71
48778;BME280;34578;0.000;0.000;2023-04-29T14:49:56;96588.75;;;17.74;59.85
48778;BME280;34578;0.000;0.000;2023-04-29T14:54:56;96591.28;;;17.67;59.03
48778;BME280;34578;0.000;0.000;2023-04-29T14:59:56;96595.47;;;17.53;59.34
48778;BME280;34578;0.000;0.000;2023-04-29T15:04:57;96595.50;;;17.71;59.83
48778;BME280;34578;0.000;0.000;2023-04-29T15:09:57;96597.19;;;17.60;58.34
48778;BME280;34578;0.000;0.000;2023-04-29T15:14:58;96602.25;;;17.57;57.35
48778;BME280;34578;0.000;0.000;2023-04-29T15:19:58;96601.41;;;17.62;60.93
48778;BME280;34578;0.000;0.000;2023-04-29T15:24:58;96595.50;;;17.77;61.75
48778;BME280;34578;0.000;0.000;2023-04-29T15:30:00;96600.59;;;17.74;59.37
48778;BME280;34578;0.000;0.000;2023-04-29T15:35:01;96598.03;;;17.62;58.09
48778;BME280;34578;0.000;0.000;2023-04-29T15:40:03;96597.19;;;17.57;60.64
48778;BME280;34578;0.000;0.000;2023-04-29T15:45:04;96605.59;;;17.53;57.16
48778;BME280;34578;0.000;0.000;2023-04-29T15:50:08;96613.22;;;17.56;56.70
48778;BME280;34578;0.000;0.000;2023-04-29T15:55:09;96609.84;;;17.57;56.29
48778;BME280;34578;0.000;0.000;2023-04-29T16:00:11;96609.00;;;17.70;61.86
48778;BME280;34578;0.000;0.000;2023-04-29T16:05:11;96609.88;;;17.79;61.15
48778;BME280;34578;0.000;0.000;2023-04-29T16:10:12;96618.31;;;17.72;58.01
48778;BME280;34578;0.000;0.000;2023-04-29T16:15:12;96625.91;;;17.65;56.14
48778;BME280;34578;0.000;0.000;2023-04-29T16:20:13;96634.31;;;17.61;56.08
48778;BME280;34578;0.000;0.000;2023-04-29T16:25:13;96636.00;;;17.56;55.88
48778;BME280;34578;0.000;0.000;2023-04-29T16:30:14;96641.06;;;17.56;55.55
48778;BME280;34578;0.000;0.000;2023-04-29T16:35:14;96637.66;;;17.54;55.89
48778;BME280;34578;0.000;0.000;2023-04-29T16:40:15;96644.47;;;17.67;58.14
48778;BME280;34578;0.000;0.000;2023-04-29T16:45:16;96643.63;;;17.75;60.44
48778;BME280;34578;0.000;0.000;2023-04-29T16:50:17;96649.53;;;17.73;57.73
48778;BME280;34578;0.000;0.000;2023-04-29T16:55:17;96652.03;;;17.64;56.15
48778;BME280;34578;0.000;0.000;2023-04-29T17:00:18;96652.88;;;17.63;56.48
48778;BME280;34578;0.000;0.000;2023-04-29T17:05:18;96654.56;;;17.58;57.18
48778;BME280;34578;0.000;0.000;2023-04-29T17:10:19;96662.16;;;17.61;55.93
48778;BME280;34578;0.000;0.000;2023-04-29T17:15:19;96663.00;;;17.60;55.70
48778;BME280;34578;0.000;0.000;2023-04-29T17:20:20;96670.63;;;17.69;58.75
48778;BME280;34578;0.000;0.000;2023-04-29T17:25:20;96668.09;;;17.78;63.18
48778;BME280;34578;0.000;0.000;2023-04-29T17:30:21;96669.78;;;17.76;59.15
48778;BME280;34578;0.000;0.000;2023-04-29T17:35:21;96676.53;;;17.65;56.14
48778;BME280;34578;0.000;0.000;2023-04-29T17:40:22;96671.44;;;17.62;55.74
48778;BME280;34578;0.000;0.000;2023-04-29T17:45:22;96663.81;;;17.51;55.78
48778;BME280;34578;0.000;0.000;2023-04-29T17:50:24;96678.19;;;17.57;55.59
48778;BME280;34578;0.000;0.000;2023-04-29T17:55:24;96684.94;;;17.58;56.17
48778;BME280;34578;0.000;0.000;2023-04-29T18:00:24;96684.97;;;17.62;55.76
48778;BME280;34578;0.000;0.000;2023-04-29T18:05:25;96696.81;;;17.77;64.98
48778;BME280;34578;0.000;0.000;2023-04-29T18:10:25;96689.22;;;17.81;64.46
48778;BME280;34578;0.000;0.000;2023-04-29T18:15:26;96689.22;;;17.77;56.47
48778;BME280;34578;0.000;0.000;2023-04-29T18:20:26;96695.94;;;17.73;55.77
48778;BME280;34578;0.000;0.000;2023-04-29T18:25:26;96697.66;;;17.73;55.96
48778;BME280;34578;0.000;0.000;2023-04-29T18:30:27;96700.19;;;17.76;55.97
48778;BME280;34578;0.000;0.000;2023-04-29T18:35:27;96693.41;;;17.72;56.98
48778;BME280;34578;0.000;0.000;2023-04-29T18:40:28;96701.88;;;17.74;55.80
48778;BME280;34578;0.000;0.000;2023-04-29T18:45:28;96697.66;;;17.80;60.63
48778;BME280;34578;0.000;0.000;2023-04-29T18:50:29;96701.88;;;17.89;62.89
48778;BME280;34578;0.000;0.000;2023-04-29T18:55:29;96710.31;;;17.85;57.67
48778;BME280;34578;0.000;0.000;2023-04-29T19:00:29;96712.84;;;17.79;56.20
48778;BME280;34578;0.000;0.000;2023-04-29T19:05:30;96706.06;;;17.73;56.01
48778;BME280;34578;0.000;0.000;2023-04-29T19:10:31;96709.44;;;17.72;55.94
48778;BME280;34578;0.000;0.000;2023-04-29T19:15:31;96728.84;;;17.69;56.01
48778;BME280;34578;0.000;0.000;2023-04-29T19:20:32;96731.38;;;17.67;55.76
48778;BME280;34578;0.000;0.000;2023-04-29T19:25:33;96731.38;;;17.64;55.93
48778;BME280;34578;0.000;0.000;2023-04-29T19:30:33;96733.91;;;17.72;59.88
48778;BME280;34578;0.000;0.000;2023-04-29T19:35:34;96733.97;;;17.84;64.39
48778;BME280;34578;0.000;0.000;2023-04-29T19:40:34;96744.91;;;17.84;61.83
48778;BME280;34578;0.000;0.000;2023-04-29T19:45:35;96745.75;;;17.74;57.11
48778;BME280;34578;0.000;0.000;2023-04-29T19:50:35;96747.41;;;17.68;56.74
48778;BME280;34578;0.000;0.000;2023-04-29T19:55:35;96753.31;;;17.65;56.34
48778;BME280;34578;0.000;0.000;2023-04-29T20:00:38;96749.94;;;17.63;55.91
48778;BME280;34578;0.000;0.000;2023-04-29T20:05:39;96749.06;;;17.58;56.25
48778;BME280;34578;0.000;0.000;2023-04-29T20:10:40;96746.53;;;17.60;56.02
48778;BME280;34578;0.000;0.000;2023-04-29T20:15:40;96752.44;;;17.59;55.98
48778;BME280;34578;0.000;0.000;2023-04-29T20:20:41;96760.94;;;17.76;64.58
48778;BME280;34578;0.000;0.000;2023-04-29T20:25:41;96760.13;;;17.81;62.79
48778;BME280;34578;0.000;0.000;2023-04-29T20:30:42;96755.88;;;17.73;60.57
48778;BME280;34578;0.000;0.000;2023-04-29T20:35:42;96755.00;;;17.66;56.74
48778;BME280;34578;0.000;0.000;2023-04-29T20:40:45;96757.50;;;17.62;56.60
48778;BME280;34578;0.000;0.000;2023-04-29T20:45:45;96753.28;;;17.59;56.08
48778;BME280;34578;0.000;0.000;2023-04-29T20:50:46;96750.75;;;17.58;56.41
48778;BME280;34578;0.000;0.000;2023-04-29T20:55:46;96756.66;;;17.57;56.50
48778;BME280;34578;0.000;0.000;2023-04-29T21:00:47;96760.84;;;17.55;56.07
48778;BME280;34578;0.000;0.000;2023-04-29T21:05:54;96757.53;;;17.65;60.00
48778;BME280;34578;0.000;0.000;2023-04-29T21:10:55;96766.84;;;17.76;65.04
48778;BME280;34578;0.000;0.000;2023-04-29T21:15:55;96769.38;;;17.78;61.26
48778;BME280;34578;0.000;0.000;2023-04-29T21:20:56;96773.56;;;17.67;58.48
48778;BME280;34578;0.000;0.000;2023-04-29T21:25:56;96771.00;;;17.61;56.71
48778;BME280;34578;0.000;0.000;2023-04-29T21:30:57;96770.16;;;17.59;56.50
48778;BME280;34578;0.000;0.000;2023-04-29T21:35:57;96774.38;;;17.57;56.13
48778;BME280;34578;0.000;0.000;2023-04-29T21:40:59;96775.22;;;17.56;56.27
48778;BME280;34578;0.000;0.000;2023-04-29T21:46:00;96773.50;;;17.55;56.06
48778;BME280;34578;0.000;0.000;2023-04-29T21:51:00;96775.22;;;17.54;56.06
48778;BME280;34578;0.000;0.000;2023-04-29T21:56:04;96778.63;;;17.68;61.49
48778;BME280;34578;0.000;0.000;2023-04-29T22:01:05;96768.56;;;17.77;65.95
48778;BME280;34578;0.000;0.000;2023-04-29T22:06:25;96766.88;;;17.75;60.96
48778;BME280;34578;0.000;0.000;2023-04-29T22:11:25;96771.00;;;17.64;59.02
48778;BME280;34578;0.000;0.000;2023-04-29T22:16:26;96767.63;;;17.59;56.90
48778;BME280;34578;0.000;0.000;2023-04-29T22:21:26;96764.25;;;17.57;56.56
48778;BME280;34578;0.000;0.000;2023-04-29T22:26:30;96770.97;;;17.55;56.10
48778;BME280;34578;0.000;0.000;2023-04-29T22:31:31;96762.56;;;17.56;56.34
48778;BME280;34578;0.000;0.000;2023-04-29T22:36:31;96764.22;;;17.54;56.11
48778;BME280;34578;0.000;0.000;2023-04-29T22:41:32;96775.22;;;17.56;55.86
48778;BME280;34578;0.000;0.000;2023-04-29T22:46:32;96771.03;;;17.70;64.66
48778;BME280;34578;0.000;0.000;2023-04-29T22:51:32;96768.56;;;17.77;65.52
48778;BME280;34578;0.000;0.000;2023-04-29T22:56:33;96772.72;;;17.71;60.76
48778;BME280;34578;0.000;0.000;2023-04-29T23:01:33;96773.53;;;17.64;57.44
48778;BME280;34578;0.000;0.000;2023-04-29T23:06:33;96774.38;;;17.60;56.60
48778;BME280;34578;0.000;0.000;2023-04-29T23:11:34;96771.84;;;17.55;56.24
48778;BME280;34578;0.000;0.000;2023-04-29T23:16:34;96776.06;;;17.53;56.19
48778;BME280;34578;0.000;0.000;2023-04-29T23:21:35;96779.44;;;17.52;56.36
48778;BME280;34578;0.000;0.000;2023-04-29T23:26:35;96781.94;;;17.54;56.17
48778;BME280;34578;0.000;0.000;2023-04-29T23:31:35;96787.84;;;17.53;56.12
48778;BME280;34578;0.000;0.000;2023-04-29T23:36:36;96785.41;;;17.71;64.71
48778;BME280;34578;0.000;0.000;2023-04-29T23:41:36;96786.28;;;17.76;65.33
48778;BME280;34578;0.000;0.000;2023-04-29T23:46:36;96782.03;;;17.73;60.64
48778;BME280;34578;0.000;0.000;2023-04-29T23:51:37;96786.22;;;17.64;58.78
48778;BME280;34578;0.000;0.000;2023-04-29T23:56:37;96777.75;;;17.59;56.67
